Lincoln City, OR (97367)

8:13 AM PDT on July 25, 2016 (GMT -0700)
APRSWXNET | | Change Station

Elev 187 ft 44.98 °N, 124.01 °W | Updated 43 minutes ago

Overcast
Overcast
61 °F
Feels Like 61 °F
N
0
Wind Variable Wind from North
Gusts 0.0 mph

Today
High -- | Low -- °F
--% Chance of Precip.
Yesterday
High -- | Low -- °F
Precip. -- in
Pressure 30.14 in
Visibility 5.0 miles
Clouds Overcast 1100 ft
Dew Point 58 °F
Humidity 90%
Rainfall in
Snow Depth Not available.
5:54 AM 8:49 PM
Waning Gibbous, 65% visible
METAR KONP 251455Z AUTO 36006KT 5SM BR OVC011 14/13 A3014 RMK AO2
Pressure 30.14 in
Visibility 5.0 miles
Clouds Overcast 1100 ft
Dew Point 58 °F
Humidity 90%
Rainfall in
Snow Depth Not available.
5:54 AM 8:49 PM
Waning Gibbous, 65% visible
METAR KONP 251455Z AUTO 36006KT 5SM BR OVC011 14/13 A3014 RMK AO2

10-Day Weather Forecast

Almanac

Astronomy

Jul. 25, 2016 Rise Set
Actual Time
Civil Twilight
Nautical Twilight
Astronomical Twilight
Moon
Length of Visible Light
Length of Day
Tomorrow will be .
, % of the Moon is Illuminated

Today's Extremes

State Highs State Lows

Community

WunderPhotos

Upload Photos

1,927,314 photos uploaded!

WunderBlog® & News

Nearby

Air Quality

  Air Quality AQ Index Pollutant
Not available.

Snow Depth

Station Depth Elevation

Earthquake Activity

City Distance Mag. Time & Date
Minimum magnitude displayed is 2.5.

Coastal Water Temperatures

Place Temperature

Stations

Nearby Weather Stations

Station Location Temp. Windchill Dew Point Humidity Wind Precip. Elev Updated Type
                   

Watches & Warnings

There are currently no watches in effect.